sensor_id;sensor_type;location;lat;lon;timestamp;temperature;humidity
18281;DHT22;9266;51.132;17.062;2023-07-30T00:00:50;16.30;99.90
18281;DHT22;9266;51.132;17.062;2023-07-30T00:03:17;16.20;99.90
18281;DHT22;9266;51.132;17.062;2023-07-30T00:05:52;16.20;99.90
18281;DHT22;9266;51.132;17.062;2023-07-30T00:08:19;16.20;99.90
18281;DHT22;9266;51.132;17.062;2023-07-30T00:10:47;16.30;99.90
18281;DHT22;9266;51.132;17.062;2023-07-30T00:13:14;16.30;99.90
18281;DHT22;9266;51.132;17.062;2023-07-30T00:15:41;16.20;99.90
18281;DHT22;9266;51.132;17.062;2023-07-30T00:18:08;16.20;99.90
18281;DHT22;9266;51.132;17.062;2023-07-30T00:20:35;16.10;99.90
18281;DHT22;9266;51.132;17.062;2023-07-30T00:23:02;16.10;99.90
18281;DHT22;9266;51.132;17.062;2023-07-30T00:25:29;16.10;99.90
18281;DHT22;9266;51.132;17.062;2023-07-30T00:27:58;16.20;99.90
18281;DHT22;9266;51.132;17.062;2023-07-30T00:30:25;16.20;99.90
18281;DHT22;9266;51.132;17.062;2023-07-30T00:32:52;16.10;99.90
18281;DHT22;9266;51.132;17.062;2023-07-30T00:35:19;16.10;99.90
18281;DHT22;9266;51.132;17.062;2023-07-30T00:37:46;16.10;99.90
18281;DHT22;9266;51.132;17.062;2023-07-30T00:40:12;16.20;99.90
18281;DHT22;9266;51.132;17.062;2023-07-30T00:42:39;16.20;99.90
18281;DHT22;9266;51.132;17.062;2023-07-30T00:45:09;16.20;99.90
18281;DHT22;9266;51.132;17.062;2023-07-30T00:47:37;16.20;99.90
18281;DHT22;9266;51.132;17.062;2023-07-30T00:50:05;16.10;99.90
18281;DHT22;9266;51.132;17.062;2023-07-30T00:52:33;16.10;99.90
18281;DHT22;9266;51.132;17.062;2023-07-30T00:55:02;16.10;99.90
18281;DHT22;9266;51.132;17.062;2023-07-30T00:57:29;16.00;99.90
18281;DHT22;9266;51.132;17.062;2023-07-30T00:59:57;16.00;99.90
18281;DHT22;9266;51.132;17.062;2023-07-30T01:02:27;15.90;99.90
18281;DHT22;9266;51.132;17.062;2023-07-30T01:04:54;16.00;99.90
18281;DHT22;9266;51.132;17.062;2023-07-30T01:07:21;16.00;99.90
18281;DHT22;9266;51.132;17.062;2023-07-30T01:09:48;16.00;99.90
18281;DHT22;9266;51.132;17.062;2023-07-30T01:12:15;16.00;99.90
18281;DHT22;9266;51.132;17.062;2023-07-30T01:14:42;16.00;99.90
18281;DHT22;9266;51.132;17.062;2023-07-30T01:17:11;16.00;99.90
18281;DHT22;9266;51.132;17.062;2023-07-30T01:19:39;15.90;99.90
18281;DHT22;9266;51.132;17.062;2023-07-30T01:22:08;16.00;99.90
18281;DHT22;9266;51.132;17.062;2023-07-30T01:24:35;15.90;99.90
18281;DHT22;9266;51.132;17.062;2023-07-30T01:27:05;15.90;99.90
18281;DHT22;9266;51.132;17.062;2023-07-30T01:29:40;15.90;99.90
18281;DHT22;9266;51.132;17.062;2023-07-30T01:32:10;16.00;99.90
18281;DHT22;9266;51.132;17.062;2023-07-30T01:34:39;16.00;99.90
18281;DHT22;9266;51.132;17.062;2023-07-30T01:37:10;15.90;99.90
18281;DHT22;9266;51.132;17.062;2023-07-30T01:39:39;15.80;99.90
18281;DHT22;9266;51.132;17.062;2023-07-30T01:42:07;15.90;99.90
18281;DHT22;9266;51.132;17.062;2023-07-30T01:44:34;15.80;99.90
18281;DHT22;9266;51.132;17.062;2023-07-30T01:47:01;15.90;99.90
18281;DHT22;9266;51.132;17.062;2023-07-30T01:49:28;15.80;99.90
18281;DHT22;9266;51.132;17.062;2023-07-30T01:51:55;15.80;99.90
18281;DHT22;9266;51.132;17.062;2023-07-30T01:54:23;15.80;99.90
18281;DHT22;9266;51.132;17.062;2023-07-30T01:56:50;15.70;99.90
18281;DHT22;9266;51.132;17.062;2023-07-30T01:59:16;15.70;99.90
18281;DHT22;9266;51.132;17.062;2023-07-30T02:01:43;15.80;99.90
18281;DHT22;9266;51.132;17.062;2023-07-30T02:04:10;15.80;99.90
18281;DHT22;9266;51.132;17.062;2023-07-30T02:06:37;15.80;99.90
18281;DHT22;9266;51.132;17.062;2023-07-30T02:09:04;15.80;99.90
18281;DHT22;9266;51.132;17.062;2023-07-30T02:11:32;15.80;99.90
18281;DHT22;9266;51.132;17.062;2023-07-30T02:13:59;15.70;99.90
18281;DHT22;9266;51.132;17.062;2023-07-30T02:16:26;15.70;99.90
18281;DHT22;9266;51.132;17.062;2023-07-30T02:18:53;15.70;99.90
18281;DHT22;9266;51.132;17.062;2023-07-30T02:21:20;15.70;99.90
18281;DHT22;9266;51.132;17.062;2023-07-30T02:23:47;15.70;99.90
18281;DHT22;9266;51.132;17.062;2023-07-30T02:26:14;15.70;99.90
18281;DHT22;9266;51.132;17.062;2023-07-30T02:28:42;15.70;99.90
18281;DHT22;9266;51.132;17.062;2023-07-30T02:31:09;15.80;99.90
18281;DHT22;9266;51.132;17.062;2023-07-30T02:33:36;15.80;99.90
18281;DHT22;9266;51.132;17.062;2023-07-30T02:36:04;15.80;99.90
18281;DHT22;9266;51.132;17.062;2023-07-30T02:38:30;15.80;99.90
18281;DHT22;9266;51.132;17.062;2023-07-30T02:40:57;15.90;99.90
18281;DHT22;9266;51.132;17.062;2023-07-30T02:43:24;15.90;99.90
18281;DHT22;9266;51.132;17.062;2023-07-30T02:45:53;15.80;99.90
18281;DHT22;9266;51.132;17.062;2023-07-30T02:48:20;15.80;99.90
18281;DHT22;9266;51.132;17.062;2023-07-30T02:50:46;15.80;99.90
18281;DHT22;9266;51.132;17.062;2023-07-30T02:53:13;15.70;99.90
18281;DHT22;9266;51.132;17.062;2023-07-30T02:55:40;15.70;99.90
18281;DHT22;9266;51.132;17.062;2023-07-30T02:58:07;15.80;99.90
18281;DHT22;9266;51.132;17.062;2023-07-30T03:00:34;15.80;99.90
18281;DHT22;9266;51.132;17.062;2023-07-30T03:03:02;15.80;99.90
18281;DHT22;9266;51.132;17.062;2023-07-30T03:05:30;15.80;99.90
18281;DHT22;9266;51.132;17.062;2023-07-30T03:07:57;15.80;99.90
18281;DHT22;9266;51.132;17.062;2023-07-30T03:10:23;15.80;99.90
18281;DHT22;9266;51.132;17.062;2023-07-30T03:12:50;15.80;99.90
18281;DHT22;9266;51.132;17.062;2023-07-30T03:15:17;15.80;99.90
18281;DHT22;9266;51.132;17.062;2023-07-30T03:17:44;15.90;99.90
18281;DHT22;9266;51.132;17.062;2023-07-30T03:20:13;15.90;99.90
18281;DHT22;9266;51.132;17.062;2023-07-30T03:22:40;16.00;99.90
18281;DHT22;9266;51.132;17.062;2023-07-30T03:25:07;16.00;99.90
18281;DHT22;9266;51.132;17.062;2023-07-30T03:27:34;16.10;99.90
18281;DHT22;9266;51.132;17.062;2023-07-30T03:30:01;16.10;99.90
18281;DHT22;9266;51.132;17.062;2023-07-30T03:32:28;16.20;99.90
18281;DHT22;9266;51.132;17.062;2023-07-30T03:34:55;16.20;99.90
18281;DHT22;9266;51.132;17.062;2023-07-30T03:37:24;16.30;99.90
18281;DHT22;9266;51.132;17.062;2023-07-30T03:39:51;16.60;99.90
18281;DHT22;9266;51.132;17.062;2023-07-30T03:42:17;16.70;99.90
18281;DHT22;9266;51.132;17.062;2023-07-30T03:44:44;17.00;99.90
18281;DHT22;9266;51.132;17.062;2023-07-30T03:47:11;17.60;99.90
18281;DHT22;9266;51.132;17.062;2023-07-30T03:49:38;18.10;99.90
18281;DHT22;9266;51.132;17.062;2023-07-30T03:52:06;18.40;99.90
18281;DHT22;9266;51.132;17.062;2023-07-30T03:54:34;18.80;99.90
18281;DHT22;9266;51.132;17.062;2023-07-30T03:57:01;19.30;99.90
18281;DHT22;9266;51.132;17.062;2023-07-30T03:59:28;19.80;99.90
18281;DHT22;9266;51.132;17.062;2023-07-30T04:01:55;19.90;99.90
18281;DHT22;9266;51.132;17.062;2023-07-30T04:04:22;20.00;1.00
18281;DHT22;9266;51.132;17.062;2023-07-30T04:06:49;20.50;99.90
18281;DHT22;9266;51.132;17.062;2023-07-30T04:09:16;20.50;99.90
18281;DHT22;9266;51.132;17.062;2023-07-30T04:11:44;20.20;1.00
18281;DHT22;9266;51.132;17.062;2023-07-30T04:14:11;20.20;1.00
18281;DHT22;9266;51.132;17.062;2023-07-30T04:16:38;20.40;1.00
18281;DHT22;9266;51.132;17.062;2023-07-30T04:19:05;20.30;8.80
18281;DHT22;9266;51.132;17.062;2023-07-30T04:21:32;20.10;99.90
18281;DHT22;9266;51.132;17.062;2023-07-30T04:23:59;19.90;1.00
18281;DHT22;9266;51.132;17.062;2023-07-30T04:26:26;19.70;42.30
18281;DHT22;9266;51.132;17.062;2023-07-30T04:28:54;19.70;1.00
18281;DHT22;9266;51.132;17.062;2023-07-30T04:31:21;19.80;1.00
18281;DHT22;9266;51.132;17.062;2023-07-30T04:33:48;19.90;99.90
18281;DHT22;9266;51.132;17.062;2023-07-30T04:36:15;19.90;1.00
18281;DHT22;9266;51.132;17.062;2023-07-30T04:38:42;20.20;99.90
18281;DHT22;9266;51.132;17.062;2023-07-30T04:41:09;21.30;99.90
18281;DHT22;9266;51.132;17.062;2023-07-30T04:43:35;22.20;1.00
18281;DHT22;9266;51.132;17.062;2023-07-30T04:46:04;22.60;1.00
18281;DHT22;9266;51.132;17.062;2023-07-30T04:48:31;23.30;1.00
18281;DHT22;9266;51.132;17.062;2023-07-30T04:50:58;23.50;1.00
18281;DHT22;9266;51.132;17.062;2023-07-30T04:53:25;23.70;1.00
18281;DHT22;9266;51.132;17.062;2023-07-30T04:55:55;24.50;1.00
18281;DHT22;9266;51.132;17.062;2023-07-30T04:58:22;24.90;13.00
18281;DHT22;9266;51.132;17.062;2023-07-30T05:00:49;25.20;1.00
18281;DHT22;9266;51.132;17.062;2023-07-30T05:03:18;24.50;1.00
18281;DHT22;9266;51.132;17.062;2023-07-30T05:05:45;24.80;99.90
18281;DHT22;9266;51.132;17.062;2023-07-30T05:08:11;24.80;1.00
18281;DHT22;9266;51.132;17.062;2023-07-30T05:10:38;25.00;1.00
18281;DHT22;9266;51.132;17.062;2023-07-30T05:13:05;25.20;58.40
18281;DHT22;9266;51.132;17.062;2023-07-30T05:15:34;24.70;99.90
18281;DHT22;9266;51.132;17.062;2023-07-30T05:18:01;24.70;1.00
18281;DHT22;9266;51.132;17.062;2023-07-30T05:20:29;25.20;1.00
18281;DHT22;9266;51.132;17.062;2023-07-30T05:22:56;25.10;99.90
18281;DHT22;9266;51.132;17.062;2023-07-30T05:25:23;25.70;1.00
18281;DHT22;9266;51.132;17.062;2023-07-30T05:27:50;25.70;52.50
18281;DHT22;9266;51.132;17.062;2023-07-30T05:30:17;25.70;1.00
18281;DHT22;9266;51.132;17.062;2023-07-30T05:32:44;25.60;1.00
18281;DHT22;9266;51.132;17.062;2023-07-30T05:35:11;25.80;1.00
18281;DHT22;9266;51.132;17.062;2023-07-30T05:37:39;25.80;1.00
18281;DHT22;9266;51.132;17.062;2023-07-30T05:40:07;25.70;1.00
18281;DHT22;9266;51.132;17.062;2023-07-30T05:42:34;25.70;1.00
18281;DHT22;9266;51.132;17.062;2023-07-30T05:45:01;26.10;1.00
18281;DHT22;9266;51.132;17.062;2023-07-30T05:47:28;26.50;1.00
18281;DHT22;9266;51.132;17.062;2023-07-30T05:49:55;26.60;1.00
18281;DHT22;9266;51.132;17.062;2023-07-30T05:52:22;27.30;1.00
18281;DHT22;9266;51.132;17.062;2023-07-30T05:54:50;28.10;99.90
18281;DHT22;9266;51.132;17.062;2023-07-30T05:57:17;28.10;61.50
18281;DHT22;9266;51.132;17.062;2023-07-30T05:59:44;27.90;10.30
18281;DHT22;9266;51.132;17.062;2023-07-30T06:02:11;27.50;58.50
18281;DHT22;9266;51.132;17.062;2023-07-30T06:04:38;26.20;39.00
18281;DHT22;9266;51.132;17.062;2023-07-30T06:07:05;28.30;1.00
18281;DHT22;9266;51.132;17.062;2023-07-30T06:09:32;29.00;1.00
18281;DHT22;9266;51.132;17.062;2023-07-30T06:12:01;28.80;1.00
18281;DHT22;9266;51.132;17.062;2023-07-30T06:14:28;29.60;1.00
18281;DHT22;9266;51.132;17.062;2023-07-30T06:16:55;29.00;1.00
18281;DHT22;9266;51.132;17.062;2023-07-30T06:19:21;29.10;1.00
18281;DHT22;9266;51.132;17.062;2023-07-30T06:21:48;28.60;1.00
18281;DHT22;9266;51.132;17.062;2023-07-30T06:24:15;28.70;1.00
18281;DHT22;9266;51.132;17.062;2023-07-30T06:26:42;29.00;1.00
18281;DHT22;9266;51.132;17.062;2023-07-30T06:29:11;28.60;1.00
18281;DHT22;9266;51.132;17.062;2023-07-30T06:31:37;28.70;1.00
18281;DHT22;9266;51.132;17.062;2023-07-30T06:34:05;29.20;1.00
18281;DHT22;9266;51.132;17.062;2023-07-30T06:36:31;28.80;1.00
18281;DHT22;9266;51.132;17.062;2023-07-30T06:38:58;28.40;1.00
18281;DHT22;9266;51.132;17.062;2023-07-30T06:41:26;29.00;1.00
18281;DHT22;9266;51.132;17.062;2023-07-30T06:43:52;28.70;1.00
18281;DHT22;9266;51.132;17.062;2023-07-30T06:46:21;28.40;1.00
18281;DHT22;9266;51.132;17.062;2023-07-30T06:48:48;29.00;1.00
18281;DHT22;9266;51.132;17.062;2023-07-30T06:51:17;29.70;1.00
18281;DHT22;9266;51.132;17.062;2023-07-30T06:53:45;29.80;1.00
18281;DHT22;9266;51.132;17.062;2023-07-30T06:56:12;30.20;1.00
18281;DHT22;9266;51.132;17.062;2023-07-30T06:58:39;30.40;1.00
18281;DHT22;9266;51.132;17.062;2023-07-30T07:01:06;29.70;1.00
18281;DHT22;9266;51.132;17.062;2023-07-30T07:03:34;28.40;1.00
18281;DHT22;9266;51.132;17.062;2023-07-30T07:06:01;29.20;1.00
18281;DHT22;9266;51.132;17.062;2023-07-30T07:08:28;29.00;1.00
18281;DHT22;9266;51.132;17.062;2023-07-30T07:10:55;29.10;1.00
18281;DHT22;9266;51.132;17.062;2023-07-30T07:13:22;29.10;1.00
18281;DHT22;9266;51.132;17.062;2023-07-30T07:15:49;28.90;1.00
18281;DHT22;9266;51.132;17.062;2023-07-30T07:18:16;28.50;1.00
18281;DHT22;9266;51.132;17.062;2023-07-30T07:20:44;28.80;1.00
18281;DHT22;9266;51.132;17.062;2023-07-30T07:23:11;29.40;1.00
18281;DHT22;9266;51.132;17.062;2023-07-30T07:25:38;29.70;1.00
18281;DHT22;9266;51.132;17.062;2023-07-30T07:28:05;28.70;1.00
18281;DHT22;9266;51.132;17.062;2023-07-30T07:30:34;28.30;1.00
18281;DHT22;9266;51.132;17.062;2023-07-30T07:33:02;28.00;1.00
18281;DHT22;9266;51.132;17.062;2023-07-30T07:35:29;28.30;1.00
18281;DHT22;9266;51.132;17.062;2023-07-30T07:37:57;28.80;1.00
18281;DHT22;9266;51.132;17.062;2023-07-30T07:40:24;28.70;1.00
18281;DHT22;9266;51.132;17.062;2023-07-30T07:42:51;28.90;1.00
18281;DHT22;9266;51.132;17.062;2023-07-30T07:45:18;28.70;1.00
18281;DHT22;9266;51.132;17.062;2023-07-30T07:47:45;29.30;1.00
18281;DHT22;9266;51.132;17.062;2023-07-30T07:50:12;29.70;1.00
18281;DHT22;9266;51.132;17.062;2023-07-30T07:52:39;28.70;1.00
18281;DHT22;9266;51.132;17.062;2023-07-30T07:55:08;28.90;1.00
18281;DHT22;9266;51.132;17.062;2023-07-30T07:57:35;29.00;1.00
18281;DHT22;9266;51.132;17.062;2023-07-30T08:00:02;28.70;1.00
18281;DHT22;9266;51.132;17.062;2023-07-30T08:02:30;29.10;1.00
18281;DHT22;9266;51.132;17.062;2023-07-30T08:04:57;29.50;1.00
18281;DHT22;9266;51.132;17.062;2023-07-30T08:07:24;29.20;1.00
18281;DHT22;9266;51.132;17.062;2023-07-30T08:09:51;29.60;1.00
18281;DHT22;9266;51.132;17.062;2023-07-30T08:12:21;29.90;1.00
18281;DHT22;9266;51.132;17.062;2023-07-30T08:14:48;29.80;1.00
18281;DHT22;9266;51.132;17.062;2023-07-30T08:17:16;30.00;1.00
18281;DHT22;9266;51.132;17.062;2023-07-30T08:19:43;29.60;1.00
18281;DHT22;9266;51.132;17.062;2023-07-30T08:22:09;29.30;1.00
18281;DHT22;9266;51.132;17.062;2023-07-30T08:24:37;28.40;1.00
18281;DHT22;9266;51.132;17.062;2023-07-30T08:27:04;29.10;1.00
18281;DHT22;9266;51.132;17.062;2023-07-30T08:29:32;29.10;1.00
18281;DHT22;9266;51.132;17.062;2023-07-30T08:31:59;29.20;1.00
18281;DHT22;9266;51.132;17.062;2023-07-30T08:34:26;29.30;1.00
18281;DHT22;9266;51.132;17.062;2023-07-30T08:36:53;29.20;1.00
18281;DHT22;9266;51.132;17.062;2023-07-30T08:39:20;29.40;1.00
18281;DHT22;9266;51.132;17.062;2023-07-30T08:41:47;29.70;1.00
18281;DHT22;9266;51.132;17.062;2023-07-30T08:44:14;29.10;1.00
18281;DHT22;9266;51.132;17.062;2023-07-30T08:46:42;28.70;1.00
18281;DHT22;9266;51.132;17.062;2023-07-30T08:49:09;28.30;1.00
18281;DHT22;9266;51.132;17.062;2023-07-30T08:51:37;29.20;1.00
18281;DHT22;9266;51.132;17.062;2023-07-30T08:54:04;30.10;1.00
18281;DHT22;9266;51.132;17.062;2023-07-30T08:56:32;29.90;1.00
18281;DHT22;9266;51.132;17.062;2023-07-30T08:58:59;29.50;1.00
18281;DHT22;9266;51.132;17.062;2023-07-30T09:01:30;30.10;1.00
18281;DHT22;9266;51.132;17.062;2023-07-30T09:04:01;29.60;1.00
18281;DHT22;9266;51.132;17.062;2023-07-30T09:06:28;29.30;1.00
18281;DHT22;9266;51.132;17.062;2023-07-30T09:08:55;29.60;1.00
18281;DHT22;9266;51.132;17.062;2023-07-30T09:11:25;30.30;1.00
18281;DHT22;9266;51.132;17.062;2023-07-30T09:13:53;29.60;1.00
18281;DHT22;9266;51.132;17.062;2023-07-30T09:16:25;29.10;1.00
18281;DHT22;9266;51.132;17.062;2023-07-30T09:18:52;28.80;1.00
18281;DHT22;9266;51.132;17.062;2023-07-30T09:21:29;29.30;1.00
18281;DHT22;9266;51.132;17.062;2023-07-30T09:23:56;29.30;1.00
18281;DHT22;9266;51.132;17.062;2023-07-30T09:26:23;29.80;1.00
18281;DHT22;9266;51.132;17.062;2023-07-30T09:28:50;29.80;1.00
18281;DHT22;9266;51.132;17.062;2023-07-30T09:31:17;29.20;1.00
18281;DHT22;9266;51.132;17.062;2023-07-30T09:33:44;27.90;1.00
18281;DHT22;9266;51.132;17.062;2023-07-30T09:36:11;27.80;1.00
18281;DHT22;9266;51.132;17.062;2023-07-30T09:38:43;27.60;1.00
18281;DHT22;9266;51.132;17.062;2023-07-30T09:41:11;27.30;1.00
18281;DHT22;9266;51.132;17.062;2023-07-30T09:43:40;27.40;1.00
18281;DHT22;9266;51.132;17.062;2023-07-30T09:46:07;27.50;1.00
18281;DHT22;9266;51.132;17.062;2023-07-30T09:48:35;27.40;1.00
18281;DHT22;9266;51.132;17.062;2023-07-30T09:51:02;27.30;1.00
18281;DHT22;9266;51.132;17.062;2023-07-30T09:53:32;27.10;1.00
18281;DHT22;9266;51.132;17.062;2023-07-30T09:56:01;26.90;1.00
18281;DHT22;9266;51.132;17.062;2023-07-30T09:58:28;27.10;1.00
18281;DHT22;9266;51.132;17.062;2023-07-30T10:00:58;27.10;1.00
18281;DHT22;9266;51.132;17.062;2023-07-30T10:03:26;27.70;1.00
18281;DHT22;9266;51.132;17.062;2023-07-30T10:05:57;28.00;1.00
18281;DHT22;9266;51.132;17.062;2023-07-30T10:08:29;28.30;1.00
18281;DHT22;9266;51.132;17.062;2023-07-30T10:11:00;28.50;1.00
18281;DHT22;9266;51.132;17.062;2023-07-30T10:13:30;28.40;1.00
18281;DHT22;9266;51.132;17.062;2023-07-30T10:15:57;28.70;1.00
18281;DHT22;9266;51.132;17.062;2023-07-30T10:18:32;28.60;1.00
18281;DHT22;9266;51.132;17.062;2023-07-30T10:21:00;28.30;1.00
18281;DHT22;9266;51.132;17.062;2023-07-30T10:23:28;28.60;1.00
18281;DHT22;9266;51.132;17.062;2023-07-30T10:25:55;28.40;1.00
18281;DHT22;9266;51.132;17.062;2023-07-30T10:28:33;28.40;1.00
18281;DHT22;9266;51.132;17.062;2023-07-30T10:31:04;28.40;1.00
18281;DHT22;9266;51.132;17.062;2023-07-30T10:33:47;28.20;1.00
18281;DHT22;9266;51.132;17.062;2023-07-30T10:36:17;28.00;1.00
18281;DHT22;9266;51.132;17.062;2023-07-30T10:38:44;28.00;1.00
18281;DHT22;9266;51.132;17.062;2023-07-30T10:41:13;28.00;1.00
18281;DHT22;9266;51.132;17.062;2023-07-30T10:43:46;27.40;1.00
18281;DHT22;9266;51.132;17.062;2023-07-30T10:46:14;27.00;1.00
18281;DHT22;9266;51.132;17.062;2023-07-30T10:48:42;26.20;1.00
18281;DHT22;9266;51.132;17.062;2023-07-30T10:51:12;25.40;1.00
18281;DHT22;9266;51.132;17.062;2023-07-30T10:53:41;24.80;1.00
18281;DHT22;9266;51.132;17.062;2023-07-30T10:56:09;24.30;1.00
18281;DHT22;9266;51.132;17.062;2023-07-30T10:58:37;24.60;1.00
18281;DHT22;9266;51.132;17.062;2023-07-30T11:01:06;25.10;1.00
18281;DHT22;9266;51.132;17.062;2023-07-30T11:03:34;25.10;25.40
18281;DHT22;9266;51.132;17.062;2023-07-30T11:06:02;25.40;1.00
18281;DHT22;9266;51.132;17.062;2023-07-30T11:08:33;25.30;1.00
18281;DHT22;9266;51.132;17.062;2023-07-30T11:11:00;25.40;1.00
18281;DHT22;9266;51.132;17.062;2023-07-30T11:13:27;25.50;1.00
18281;DHT22;9266;51.132;17.062;2023-07-30T11:15:54;25.90;1.00
18281;DHT22;9266;51.132;17.062;2023-07-30T11:18:24;25.80;1.00
18281;DHT22;9266;51.132;17.062;2023-07-30T11:20:51;25.90;1.00
18281;DHT22;9266;51.132;17.062;2023-07-30T11:23:20;26.20;1.00
18281;DHT22;9266;51.132;17.062;2023-07-30T11:25:48;26.80;1.00
18281;DHT22;9266;51.132;17.062;2023-07-30T11:28:27;26.80;1.00
18281;DHT22;9266;51.132;17.062;2023-07-30T11:30:56;27.00;1.00
18281;DHT22;9266;51.132;17.062;2023-07-30T11:33:26;27.50;1.00
18281;DHT22;9266;51.132;17.062;2023-07-30T11:35:54;27.80;1.00
18281;DHT22;9266;51.132;17.062;2023-07-30T11:38:21;28.30;1.00
18281;DHT22;9266;51.132;17.062;2023-07-30T11:40:49;27.90;1.00
18281;DHT22;9266;51.132;17.062;2023-07-30T11:43:16;27.50;1.00
18281;DHT22;9266;51.132;17.062;2023-07-30T11:45:44;27.90;1.00
18281;DHT22;9266;51.132;17.062;2023-07-30T11:48:11;28.30;1.00
18281;DHT22;9266;51.132;17.062;2023-07-30T11:50:47;28.30;1.00
18281;DHT22;9266;51.132;17.062;2023-07-30T11:53:14;28.30;1.00
18281;DHT22;9266;51.132;17.062;2023-07-30T11:55:43;27.90;1.00
18281;DHT22;9266;51.132;17.062;2023-07-30T11:58:11;27.80;1.00
18281;DHT22;9266;51.132;17.062;2023-07-30T12:00:38;27.30;1.00
18281;DHT22;9266;51.132;17.062;2023-07-30T12:03:11;27.00;1.00
18281;DHT22;9266;51.132;17.062;2023-07-30T12:05:39;26.60;1.00
18281;DHT22;9266;51.132;17.062;2023-07-30T12:08:16;26.10;1.00
18281;DHT22;9266;51.132;17.062;2023-07-30T12:10:46;25.50;1.00
18281;DHT22;9266;51.132;17.062;2023-07-30T12:13:18;24.80;99.90
18281;DHT22;9266;51.132;17.062;2023-07-30T12:15:51;24.40;99.90
18281;DHT22;9266;51.132;17.062;2023-07-30T12:18:18;24.30;99.90
18281;DHT22;9266;51.132;17.062;2023-07-30T12:20:45;24.40;99.90
18281;DHT22;9266;51.132;17.062;2023-07-30T12:23:13;24.40;99.90
18281;DHT22;9266;51.132;17.062;2023-07-30T12:25:40;24.60;99.90
18281;DHT22;9266;51.132;17.062;2023-07-30T12:28:07;24.80;99.90
18281;DHT22;9266;51.132;17.062;2023-07-30T12:30:34;24.90;99.90
18281;DHT22;9266;51.132;17.062;2023-07-30T12:33:02;24.90;17.70
18281;DHT22;9266;51.132;17.062;2023-07-30T12:35:29;25.00;1.00
18281;DHT22;9266;51.132;17.062;2023-07-30T12:37:57;25.20;1.00
18281;DHT22;9266;51.132;17.062;2023-07-30T12:40:25;25.40;1.00
18281;DHT22;9266;51.132;17.062;2023-07-30T12:42:55;25.60;1.00
18281;DHT22;9266;51.132;17.062;2023-07-30T12:45:22;25.80;1.00
18281;DHT22;9266;51.132;17.062;2023-07-30T12:47:49;25.90;1.00
18281;DHT22;9266;51.132;17.062;2023-07-30T12:50:16;25.90;1.00
18281;DHT22;9266;51.132;17.062;2023-07-30T12:52:43;25.70;1.00
18281;DHT22;9266;51.132;17.062;2023-07-30T12:55:10;25.80;1.00
18281;DHT22;9266;51.132;17.062;2023-07-30T12:57:38;25.60;1.00
18281;DHT22;9266;51.132;17.062;2023-07-30T13:00:06;25.50;1.00
18281;DHT22;9266;51.132;17.062;2023-07-30T13:02:33;25.50;1.00
18281;DHT22;9266;51.132;17.062;2023-07-30T13:05:01;25.70;1.00
18281;DHT22;9266;51.132;17.062;2023-07-30T13:07:30;25.70;1.00
18281;DHT22;9266;51.132;17.062;2023-07-30T13:10:07;25.80;1.00
18281;DHT22;9266;51.132;17.062;2023-07-30T13:12:35;25.80;1.00
18281;DHT22;9266;51.132;17.062;2023-07-30T13:15:05;25.70;1.00
18281;DHT22;9266;51.132;17.062;2023-07-30T13:17:32;25.50;1.00
18281;DHT22;9266;51.132;17.062;2023-07-30T13:19:59;25.50;1.00
18281;DHT22;9266;51.132;17.062;2023-07-30T13:22:26;25.40;1.00
18281;DHT22;9266;51.132;17.062;2023-07-30T13:24:53;25.50;1.00
18281;DHT22;9266;51.132;17.062;2023-07-30T13:27:20;25.50;1.00
18281;DHT22;9266;51.132;17.062;2023-07-30T13:29:47;25.70;1.00
18281;DHT22;9266;51.132;17.062;2023-07-30T13:32:16;25.80;1.00
18281;DHT22;9266;51.132;17.062;2023-07-30T13:34:43;25.90;1.00
18281;DHT22;9266;51.132;17.062;2023-07-30T13:37:10;26.30;1.00
18281;DHT22;9266;51.132;17.062;2023-07-30T13:39:37;26.30;1.00
18281;DHT22;9266;51.132;17.062;2023-07-30T13:42:04;26.30;1.00
18281;DHT22;9266;51.132;17.062;2023-07-30T13:44:31;26.80;1.00
18281;DHT22;9266;51.132;17.062;2023-07-30T13:46:58;26.20;1.00
18281;DHT22;9266;51.132;17.062;2023-07-30T13:49:26;26.20;1.00
18281;DHT22;9266;51.132;17.062;2023-07-30T13:51:53;26.40;1.00
18281;DHT22;9266;51.132;17.062;2023-07-30T13:54:20;26.40;1.00
18281;DHT22;9266;51.132;17.062;2023-07-30T13:56:47;26.40;1.00
18281;DHT22;9266;51.132;17.062;2023-07-30T13:59:14;26.30;1.00
18281;DHT22;9266;51.132;17.062;2023-07-30T14:01:41;26.40;1.00
18281;DHT22;9266;51.132;17.062;2023-07-30T14:04:08;26.40;1.00
18281;DHT22;9266;51.132;17.062;2023-07-30T14:06:36;26.40;1.00
18281;DHT22;9266;51.132;17.062;2023-07-30T14:09:03;26.40;1.00
18281;DHT22;9266;51.132;17.062;2023-07-30T14:11:30;26.50;1.00
18281;DHT22;9266;51.132;17.062;2023-07-30T14:13:57;26.70;1.00
18281;DHT22;9266;51.132;17.062;2023-07-30T14:16:25;26.80;1.00
18281;DHT22;9266;51.132;17.062;2023-07-30T14:18:51;26.70;1.00
18281;DHT22;9266;51.132;17.062;2023-07-30T14:21:18;26.50;1.00
18281;DHT22;9266;51.132;17.062;2023-07-30T14:23:47;26.60;1.00
18281;DHT22;9266;51.132;17.062;2023-07-30T14:26:14;26.70;1.00
18281;DHT22;9266;51.132;17.062;2023-07-30T14:28:41;26.90;1.00
18281;DHT22;9266;51.132;17.062;2023-07-30T14:31:08;26.70;1.00
18281;DHT22;9266;51.132;17.062;2023-07-30T14:33:35;26.60;1.00
18281;DHT22;9266;51.132;17.062;2023-07-30T14:36:02;26.40;1.00
18281;DHT22;9266;51.132;17.062;2023-07-30T14:38:29;26.30;1.00
18281;DHT22;9266;51.132;17.062;2023-07-30T14:41:01;26.00;1.00
18281;DHT22;9266;51.132;17.062;2023-07-30T14:43:28;25.80;1.00
18281;DHT22;9266;51.132;17.062;2023-07-30T14:45:54;25.80;1.00
18281;DHT22;9266;51.132;17.062;2023-07-30T14:48:22;25.80;1.00
18281;DHT22;9266;51.132;17.062;2023-07-30T14:50:49;25.80;1.00
18281;DHT22;9266;51.132;17.062;2023-07-30T14:53:16;25.70;1.00
18281;DHT22;9266;51.132;17.062;2023-07-30T14:55:43;25.60;1.00
18281;DHT22;9266;51.132;17.062;2023-07-30T14:58:11;25.40;1.00
18281;DHT22;9266;51.132;17.062;2023-07-30T15:00:39;25.40;1.00
18281;DHT22;9266;51.132;17.062;2023-07-30T15:03:06;25.20;1.00
18281;DHT22;9266;51.132;17.062;2023-07-30T15:05:33;25.00;1.00
18281;DHT22;9266;51.132;17.062;2023-07-30T15:08:00;24.50;1.00
18281;DHT22;9266;51.132;17.062;2023-07-30T15:10:28;24.00;1.00
18281;DHT22;9266;51.132;17.062;2023-07-30T15:12:55;23.50;1.00
18281;DHT22;9266;51.132;17.062;2023-07-30T15:15:23;23.00;38.00
18281;DHT22;9266;51.132;17.062;2023-07-30T15:17:50;22.70;25.80
18281;DHT22;9266;51.132;17.062;2023-07-30T15:20:17;22.40;99.90
18281;DHT22;9266;51.132;17.062;2023-07-30T15:22:44;22.00;99.90
18281;DHT22;9266;51.132;17.062;2023-07-30T15:25:11;21.30;1.00
18281;DHT22;9266;51.132;17.062;2023-07-30T15:27:38;20.40;44.80
18281;DHT22;9266;51.132;17.062;2023-07-30T15:30:05;20.00;99.90
18281;DHT22;9266;51.132;17.062;2023-07-30T15:32:40;19.70;1.00
18281;DHT22;9266;51.132;17.062;2023-07-30T15:35:08;19.40;1.00
18281;DHT22;9266;51.132;17.062;2023-07-30T15:37:35;19.30;1.00
18281;DHT22;9266;51.132;17.062;2023-07-30T15:40:02;19.30;72.30
18281;DHT22;9266;51.132;17.062;2023-07-30T15:42:29;19.30;99.90